createdAt,value
2017-10-25T00:00:02.541Z,16.5
2017-10-25T00:01:02.868Z,16.56
2017-10-25T00:02:02.850Z,16.53
2017-10-25T00:03:02.843Z,16.52
2017-10-25T00:04:02.835Z,16.49
2017-10-25T00:05:02.831Z,16.52
2017-10-25T00:06:02.816Z,16.56
2017-10-25T00:07:02.450Z,16.48
2017-10-25T00:08:02.456Z,16.42
2017-10-25T00:09:02.426Z,16.5
2017-10-25T00:10:02.417Z,16.45
2017-10-25T00:11:02.406Z,16.48
2017-10-25T00:12:02.730Z,16.5
2017-10-25T00:13:02.040Z,16.34
2017-10-25T00:14:02.707Z,16.42
2017-10-25T00:15:02.687Z,16.35
2017-10-25T00:16:02.338Z,16.38
2017-10-25T00:17:01.993Z,16.34
2017-10-25T00:18:02.315Z,16.34
2017-10-25T00:19:02.642Z,16.38
2017-10-25T00:20:02.289Z,16.34
2017-10-25T00:21:02.625Z,16.27
2017-10-25T00:22:02.594Z,16.34
2017-10-25T00:23:02.265Z,16.35
2017-10-25T00:24:02.234Z,16.26
2017-10-25T00:25:02.228Z,16.25
2017-10-25T00:26:02.209Z,16.3
2017-10-25T00:27:02.194Z,16.27
2017-10-25T00:28:02.517Z,16.33
2017-10-25T00:29:02.506Z,16.25
2017-10-25T00:30:02.495Z,16.38
2017-10-25T00:31:02.478Z,16.4
2017-10-25T00:32:02.478Z,16.27
2017-10-25T00:33:02.133Z,16.4
2017-10-25T00:34:01.771Z,16.42
2017-10-25T00:35:02.442Z,16.44
2017-10-25T00:36:02.081Z,16.45
2017-10-25T00:37:02.074Z,16.52
2017-10-25T00:38:02.386Z,16.53
2017-10-25T00:39:02.042Z,16.53
2017-10-25T00:40:02.030Z,16.49
2017-10-25T00:41:02.356Z,16.59
2017-10-25T00:42:02.004Z,16.44
2017-10-25T00:43:02.001Z,16.52
2017-10-25T00:44:02.308Z,16.52
2017-10-25T00:45:01.965Z,16.55
2017-10-25T00:46:01.957Z,16.52
2017-10-25T00:47:02.269Z,16.59
2017-10-25T00:48:01.928Z,16.6
2017-10-25T00:49:02.244Z,16.58
2017-10-25T00:50:02.239Z,16.55
2017-10-25T00:51:01.886Z,16.58
2017-10-25T00:52:01.893Z,16.65
2017-10-25T00:53:02.205Z,16.6
2017-10-25T00:54:01.850Z,16.6
2017-10-25T00:55:02.174Z,16.59
2017-10-25T00:56:02.170Z,16.56
2017-10-25T00:57:01.815Z,16.56
2017-10-25T00:58:01.804Z,16.56
2017-10-25T00:59:01.794Z,16.62
2017-10-25T01:00:01.450Z,16.6
2017-10-25T01:01:02.096Z,16.59
2017-10-25T01:02:01.750Z,16.65
2017-10-25T01:03:02.071Z,16.68
2017-10-25T01:04:01.725Z,16.59
2017-10-25T01:05:02.045Z,16.74
2017-10-25T01:06:01.700Z,16.68
2017-10-25T01:07:02.019Z,16.59
2017-10-25T01:08:02.009Z,16.7
2017-10-25T01:09:01.333Z,16.7
2017-10-25T01:10:01.979Z,16.7
2017-10-25T01:11:01.633Z,16.77
2017-10-25T01:12:01.636Z,16.77
2017-10-25T01:13:01.947Z,16.7
2017-10-25T01:14:01.598Z,16.71
2017-10-25T01:15:01.587Z,16.73
2017-10-25T01:16:01.902Z,16.74
2017-10-25T01:17:01.561Z,16.75
2017-10-25T01:18:01.883Z,16.77
2017-10-25T01:19:01.545Z,16.7
2017-10-25T01:20:01.516Z,16.68
2017-10-25T01:21:01.534Z,16.68
2017-10-25T01:22:01.835Z,16.68
2017-10-25T01:23:01.544Z,16.71
2017-10-25T01:24:01.811Z,16.74
2017-10-25T01:25:01.670Z,16.71
2017-10-25T01:26:01.449Z,16.77
2017-10-25T01:27:01.440Z,16.74
2017-10-25T01:28:01.756Z,16.83
2017-10-25T01:29:01.749Z,16.78
2017-10-25T01:30:01.401Z,16.85
2017-10-25T01:31:01.730Z,16.85
2017-10-25T01:32:01.372Z,16.85
2017-10-25T01:33:01.363Z,16.81
2017-10-25T01:34:01.688Z,16.8
2017-10-25T01:35:01.332Z,16.68
2017-10-25T01:36:00.994Z,16.83
2017-10-25T01:37:01.649Z,16.85
2017-10-25T01:38:01.307Z,16.83
2017-10-25T01:39:01.288Z,16.77
2017-10-25T01:40:01.609Z,16.83
2017-10-25T01:41:01.590Z,16.86
2017-10-25T01:42:01.244Z,16.65
2017-10-25T01:43:01.236Z,16.92
2017-10-25T01:44:01.227Z,16.78
2017-10-25T01:45:01.211Z,16.83
2017-10-25T01:46:00.865Z,16.77
2017-10-25T01:47:01.529Z,16.62
2017-10-25T01:48:01.188Z,16.85
2017-10-25T01:49:01.166Z,16.85
2017-10-25T01:50:01.150Z,16.78
2017-10-25T01:51:01.480Z,16.85
2017-10-25T01:52:01.134Z,16.8
2017-10-25T01:53:01.112Z,16.78
2017-10-25T01:54:01.436Z,16.75
2017-10-25T01:55:01.428Z,16.8
2017-10-25T01:56:01.072Z,16.71
2017-10-25T01:57:01.056Z,16.74
2017-10-25T01:58:00.719Z,16.83
2017-10-25T01:59:00.715Z,16.7
2017-10-25T02:00:01.370Z,16.74
2017-10-25T02:01:01.010Z,16.68
2017-10-25T02:02:01.014Z,16.71
2017-10-25T02:03:00.982Z,16.71
2017-10-25T02:04:00.643Z,16.73
2017-10-25T02:05:00.961Z,16.68
2017-10-25T02:06:01.280Z,16.7
2017-10-25T02:07:01.282Z,16.67
2017-10-25T02:08:01.279Z,16.7
2017-10-25T02:09:01.256Z,16.67
2017-10-25T02:10:00.567Z,16.7
2017-10-25T02:11:01.429Z,16.56
2017-10-25T02:12:00.540Z,16.67
2017-10-25T02:13:01.200Z,16.62
2017-10-25T02:14:01.191Z,16.62
2017-10-25T02:15:00.855Z,16.6
2017-10-25T02:16:01.164Z,16.58
2017-10-25T02:17:01.150Z,16.58
2017-10-25T02:18:01.138Z,16.59
2017-10-25T02:19:01.116Z,16.58
2017-10-25T02:20:00.793Z,16.58
2017-10-25T02:21:00.432Z,16.53
2017-10-25T02:22:00.753Z,16.49
2017-10-25T02:23:01.072Z,16.52
2017-10-25T02:24:01.055Z,16.48
2017-10-25T02:25:01.050Z,16.42
2017-10-25T02:26:00.695Z,16.41
2017-10-25T02:27:01.020Z,16.5
2017-10-25T02:28:01.004Z,16.48
2017-10-25T02:29:00.325Z,16.41
2017-10-25T02:30:00.651Z,16.44
2017-10-25T02:31:00.631Z,16.35
2017-10-25T02:32:00.621Z,16.38
2017-10-25T02:33:00.279Z,16.37
2017-10-25T02:34:00.936Z,16.37
2017-10-25T02:35:00.577Z,16.34
2017-10-25T02:36:00.237Z,16.38
2017-10-25T02:37:00.229Z,16.33
2017-10-25T02:38:00.207Z,16.26
2017-10-25T02:39:00.196Z,16.31
2017-10-25T02:40:00.518Z,16.35
2017-10-25T02:41:00.843Z,16.34
2017-10-25T02:42:00.491Z,16.34
2017-10-25T02:43:00.807Z,16.34
2017-10-25T02:44:00.795Z,16.27
2017-10-25T02:45:00.785Z,16.3
2017-10-25T02:46:00.437Z,16.25
2017-10-25T02:47:00.768Z,16.25
2017-10-25T02:48:00.431Z,16.27
2017-10-25T02:49:00.727Z,16.25
2017-10-25T02:50:00.388Z,16.25
2017-10-25T02:51:00.706Z,16.25
2017-10-25T02:52:00.362Z,16.25
2017-10-25T02:53:00.014Z,16.22
2017-10-25T02:54:00.683Z,16.27
2017-10-25T02:55:00.321Z,16.25
2017-10-25T02:56:00.316Z,16.27
2017-10-25T02:57:00.298Z,16.26
2017-10-25T02:58:00.611Z,16.27
2017-10-25T02:58:59.932Z,16.27
2017-10-25T03:00:00.254Z,16.27
2017-10-25T03:01:00.242Z,16.31
2017-10-25T03:02:00.234Z,16.31
2017-10-25T03:03:00.543Z,16.27
2017-10-25T03:04:00.198Z,16.25
2017-10-25T03:05:00.541Z,16.26
2017-10-25T03:06:00.518Z,16.26
2017-10-25T03:07:00.504Z,16.26
2017-10-25T03:08:00.155Z,16.25
2017-10-25T03:09:00.137Z,16.26
2017-10-25T03:10:00.138Z,16.25
2017-10-25T03:10:59.781Z,16.22
2017-10-25T03:11:59.766Z,16.26
2017-10-25T03:13:00.419Z,16.27
2017-10-25T03:14:00.430Z,16.27
2017-10-25T03:15:00.056Z,16.31
2017-10-25T03:16:00.394Z,16.26
2017-10-25T03:17:00.029Z,16.23
2017-10-25T03:18:00.350Z,16.23
2017-10-25T03:19:00.346Z,16.27
2017-10-25T03:19:59.993Z,16.26
2017-10-25T03:20:59.649Z,16.3
2017-10-25T03:22:00.303Z,16.27
2017-10-25T03:22:59.951Z,16.31
2017-10-25T03:24:00.273Z,16.25
2017-10-25T03:25:00.129Z,16.26
2017-10-25T03:26:00.256Z,16.26
2017-10-25T03:26:59.891Z,16.26
2017-10-25T03:27:59.887Z,16.27
2017-10-25T03:28:59.869Z,16.27
2017-10-25T03:29:59.860Z,16.3
2017-10-25T03:31:00.190Z,16.27
2017-10-25T03:31:59.504Z,16.26
2017-10-25T03:32:59.490Z,16.3
2017-10-25T03:34:00.143Z,16.22
2017-10-25T03:34:59.794Z,16.31
2017-10-25T03:35:59.789Z,16.25
2017-10-25T03:37:00.097Z,16.3
2017-10-25T03:37:59.425Z,16.26
2017-10-25T03:39:00.071Z,16.23
2017-10-25T03:39:59.731Z,16.25
2017-10-25T03:41:00.063Z,16.23
2017-10-25T03:41:59.704Z,16.31
2017-10-25T03:42:59.683Z,16.2
2017-10-25T03:44:00.016Z,16.27
2017-10-25T03:44:59.658Z,16.26
2017-10-25T03:45:59.316Z,16.23
2017-10-25T03:46:59.308Z,16.27
2017-10-25T03:47:59.950Z,16.27
2017-10-25T03:48:59.610Z,16.31
2017-10-25T03:49:59.600Z,16.34
2017-10-25T03:50:59.581Z,16.23
2017-10-25T03:51:59.586Z,16.34
2017-10-25T03:52:59.890Z,16.27
2017-10-25T03:53:59.538Z,16.31
2017-10-25T03:54:59.527Z,16.33
2017-10-25T03:55:59.515Z,16.33
2017-10-25T03:56:59.839Z,16.31
2017-10-25T03:57:59.493Z,16.26
2017-10-25T03:58:59.478Z,16.38
2017-10-25T03:59:59.796Z,16.25
2017-10-25T04:00:59.478Z,16.3
2017-10-25T04:01:59.772Z,16.34
2017-10-25T04:02:59.757Z,16.27
2017-10-25T04:03:59.741Z,16.25
2017-10-25T04:04:59.402Z,16.33
2017-10-25T04:05:59.383Z,16.26
2017-10-25T04:06:59.716Z,16.33
2017-10-25T04:07:59.358Z,16.26
2017-10-25T04:08:59.019Z,16.3
2017-10-25T04:09:59.674Z,16.3
2017-10-25T04:10:59.321Z,16.3
2017-10-25T04:11:59.310Z,16.34
2017-10-25T04:12:59.303Z,16.27
2017-10-25T04:13:59.286Z,16.27
2017-10-25T04:14:59.610Z,16.3
2017-10-25T04:15:59.592Z,16.27
2017-10-25T04:16:59.247Z,16.38
2017-10-25T04:17:59.227Z,16.35
2017-10-25T04:18:58.882Z,16.3
2017-10-25T04:19:59.535Z,16.35
2017-10-25T04:20:59.192Z,16.35
2017-10-25T04:21:58.852Z,16.31
2017-10-25T04:22:58.832Z,16.37
2017-10-25T04:23:59.490Z,16.27
2017-10-25T04:24:59.133Z,16.27
2017-10-25T04:25:59.461Z,16.34
2017-10-25T04:26:59.119Z,16.27
2017-10-25T04:27:58.764Z,16.34
2017-10-25T04:28:59.089Z,16.37
2017-10-25T04:29:59.191Z,16.31
2017-10-25T04:30:58.728Z,16.37
2017-10-25T04:31:59.060Z,16.34
2017-10-25T04:32:58.703Z,16.3
2017-10-25T04:33:59.024Z,16.27
2017-10-25T04:34:59.008Z,16.35
2017-10-25T04:35:59.008Z,16.31
2017-10-25T04:36:58.646Z,16.26
2017-10-25T04:37:58.981Z,16.31
2017-10-25T04:38:58.963Z,16.31
2017-10-25T04:39:58.945Z,16.31
2017-10-25T04:40:59.267Z,16.3
2017-10-25T04:41:59.250Z,16.33
2017-10-25T04:42:59.241Z,16.26
2017-10-25T04:43:58.895Z,16.31
2017-10-25T04:44:58.881Z,16.31
2017-10-25T04:45:58.870Z,16.31
2017-10-25T04:46:58.523Z,16.4
2017-10-25T04:47:58.846Z,16.38
2017-10-25T04:48:59.168Z,16.38
2017-10-25T04:49:58.814Z,16.33
2017-10-25T04:50:58.803Z,16.4
2017-10-25T04:51:58.815Z,16.35
2017-10-25T04:52:58.787Z,16.37
2017-10-25T04:53:58.777Z,16.41
2017-10-25T04:54:58.850Z,16.37
2017-10-25T04:55:58.412Z,16.44
2017-10-25T04:56:58.723Z,16.45
2017-10-25T04:57:58.381Z,16.49
2017-10-25T04:58:58.360Z,16.38
2017-10-25T04:59:59.031Z,16.4
2017-10-25T05:00:58.669Z,16.37
2017-10-25T05:01:58.662Z,16.4
2017-10-25T05:02:58.643Z,16.37
2017-10-25T05:03:58.632Z,16.35
2017-10-25T05:04:58.616Z,16.42
2017-10-25T05:05:58.943Z,16.38
2017-10-25T05:06:58.261Z,16.4
2017-10-25T05:07:58.917Z,16.48
2017-10-25T05:08:58.901Z,16.4
2017-10-25T05:09:58.893Z,16.42
2017-10-25T05:10:58.541Z,16.38
2017-10-25T05:11:58.859Z,16.48
2017-10-25T05:12:58.852Z,16.44
2017-10-25T05:13:58.167Z,16.42
2017-10-25T05:14:58.922Z,16.35
2017-10-25T05:15:58.478Z,16.41
2017-10-25T05:16:58.465Z,16.42
2017-10-25T05:17:58.448Z,16.4
2017-10-25T05:18:58.474Z,16.33
2017-10-25T05:19:58.761Z,16.27
2017-10-25T05:20:58.411Z,16.31
2017-10-25T05:21:58.064Z,16.34
2017-10-25T05:22:58.384Z,16.3
2017-10-25T05:23:58.039Z,16.33
2017-10-25T05:24:58.560Z,16.25
2017-10-25T05:25:58.354Z,16.26
2017-10-25T05:26:57.995Z,16.35
2017-10-25T05:27:58.323Z,16.38
2017-10-25T05:28:58.306Z,16.33
2017-10-25T05:29:58.644Z,16.25
2017-10-25T05:30:57.954Z,16.26
2017-10-25T05:31:58.606Z,16.41
2017-10-25T05:32:58.260Z,16.33
2017-10-25T05:33:57.920Z,16.35
2017-10-25T05:34:58.233Z,16.35
2017-10-25T05:35:58.222Z,16.33
2017-10-25T05:36:58.203Z,16.33
2017-10-25T05:37:58.194Z,16.27
2017-10-25T05:38:58.175Z,16.35
2017-10-25T05:39:58.521Z,16.35
2017-10-25T05:40:57.818Z,16.34
2017-10-25T05:41:58.135Z,16.27
2017-10-25T05:42:58.461Z,16.33
2017-10-25T05:43:57.780Z,16.33
2017-10-25T05:44:58.435Z,16.3
2017-10-25T05:45:58.096Z,16.26
2017-10-25T05:46:58.407Z,16.27
2017-10-25T05:47:57.733Z,16.26
2017-10-25T05:48:57.719Z,16.4
2017-10-25T05:49:58.472Z,16.35
2017-10-25T05:50:58.355Z,16.31
2017-10-25T05:51:58.339Z,16.3
2017-10-25T05:52:58.341Z,16.27
2017-10-25T05:53:57.652Z,16.25
2017-10-25T05:54:57.975Z,16.27
2017-10-25T05:55:58.295Z,16.27
2017-10-25T05:56:57.945Z,16.31
2017-10-25T05:57:57.931Z,16.25
2017-10-25T05:58:57.915Z,16.3
2017-10-25T05:59:57.572Z,16.31
2017-10-25T06:00:57.892Z,16.34
2017-10-25T06:01:58.219Z,16.44
2017-10-25T06:02:57.538Z,16.38
2017-10-25T06:03:57.852Z,16.4
2017-10-25T06:04:57.845Z,16.37
2017-10-25T06:05:57.831Z,16.37
2017-10-25T06:06:57.483Z,16.45
2017-10-25T06:07:57.797Z,16.31
2017-10-25T06:08:57.447Z,16.45
2017-10-25T06:09:58.124Z,16.34
2017-10-25T06:10:57.759Z,16.37
2017-10-25T06:11:57.766Z,16.49
2017-10-25T06:12:58.096Z,16.38
2017-10-25T06:13:58.055Z,16.45
2017-10-25T06:14:58.058Z,16.53
2017-10-25T06:15:57.692Z,16.52
2017-10-25T06:16:57.686Z,16.49
2017-10-25T06:17:57.667Z,16.49
2017-10-25T06:18:57.658Z,16.45
2017-10-25T06:19:57.976Z,16.45
2017-10-25T06:20:57.970Z,16.49
2017-10-25T06:21:57.960Z,16.48
2017-10-25T06:22:57.611Z,16.38
2017-10-25T06:23:57.618Z,16.45
2017-10-25T06:24:57.577Z,16.45
2017-10-25T06:25:58.002Z,16.49
2017-10-25T06:26:57.553Z,16.48
2017-10-25T06:27:57.871Z,16.34
2017-10-25T06:28:57.868Z,16.49
2017-10-25T06:29:57.510Z,16.42
2017-10-25T06:30:57.839Z,16.48
2017-10-25T06:31:57.835Z,16.49
2017-10-25T06:32:57.475Z,16.58
2017-10-25T06:33:57.789Z,16.48
2017-10-25T06:34:57.444Z,16.45
2017-10-25T06:35:57.534Z,16.48
2017-10-25T06:36:57.088Z,16.37
2017-10-25T06:37:57.078Z,16.48
2017-10-25T06:38:57.392Z,16.4
2017-10-25T06:39:57.382Z,16.38
2017-10-25T06:40:57.374Z,16.42
2017-10-25T06:41:57.026Z,16.37
2017-10-25T06:42:57.348Z,16.45
2017-10-25T06:43:57.000Z,16.38
2017-10-25T06:44:57.652Z,16.38
2017-10-25T06:45:57.737Z,16.38
2017-10-25T06:46:57.630Z,16.49
2017-10-25T06:47:57.610Z,16.48
2017-10-25T06:48:57.607Z,16.35
2017-10-25T06:49:57.583Z,16.49
2017-10-25T06:50:57.578Z,16.49
2017-10-25T06:51:57.224Z,16.5
2017-10-25T06:52:57.212Z,16.42
2017-10-25T06:53:57.195Z,16.53
2017-10-25T06:54:57.517Z,16.42
2017-10-25T06:55:57.178Z,16.52
2017-10-25T06:56:57.510Z,16.5
2017-10-25T06:57:57.482Z,16.52
2017-10-25T06:58:57.505Z,16.45
2017-10-25T06:59:56.790Z,16.49
2017-10-25T07:00:57.447Z,16.55
2017-10-25T07:01:56.761Z,16.53
2017-10-25T07:02:57.084Z,16.58
2017-10-25T07:03:57.067Z,16.58
2017-10-25T07:04:57.387Z,16.6
2017-10-25T07:05:57.052Z,16.58
2017-10-25T07:06:57.368Z,16.6
2017-10-25T07:07:57.363Z,16.63
2017-10-25T07:08:57.023Z,16.65
2017-10-25T07:09:57.009Z,16.74
2017-10-25T07:10:56.648Z,16.75
2017-10-25T07:11:57.305Z,16.58
2017-10-25T07:12:56.956Z,16.67
2017-10-25T07:13:56.943Z,16.73
2017-10-25T07:14:56.598Z,16.74
2017-10-25T07:15:57.254Z,16.73
2017-10-25T07:16:56.910Z,16.7
2017-10-25T07:17:56.896Z,16.73
2017-10-25T07:18:56.559Z,16.74
2017-10-25T07:19:56.872Z,16.75
2017-10-25T07:20:57.193Z,16.74
2017-10-25T07:21:56.512Z,16.73
2017-10-25T07:22:57.177Z,16.71
2017-10-25T07:23:57.152Z,16.7
2017-10-25T07:24:57.353Z,16.74
2017-10-25T07:25:56.803Z,16.75
2017-10-25T07:26:56.788Z,16.68
2017-10-25T07:27:56.775Z,16.74
2017-10-25T07:28:56.760Z,16.75
2017-10-25T07:29:56.755Z,16.77
2017-10-25T07:30:56.740Z,16.8
2017-10-25T07:31:57.188Z,16.67
2017-10-25T07:32:56.707Z,16.85
2017-10-25T07:33:57.036Z,16.63
2017-10-25T07:34:57.025Z,16.73
2017-10-25T07:35:56.682Z,16.77
2017-10-25T07:36:56.987Z,16.78
2017-10-25T07:37:56.649Z,16.78
2017-10-25T07:38:56.970Z,16.77
2017-10-25T07:39:56.619Z,16.8
2017-10-25T07:40:56.937Z,16.8
2017-10-25T07:41:56.361Z,16.75
2017-10-25T07:42:56.585Z,16.81
2017-10-25T07:43:56.237Z,16.85
2017-10-25T07:44:56.892Z,16.85
2017-10-25T07:45:56.549Z,16.83
2017-10-25T07:46:56.864Z,16.96
2017-10-25T07:47:56.862Z,16.9
2017-10-25T07:48:56.856Z,16.95
2017-10-25T07:49:56.496Z,16.9
2017-10-25T07:50:56.484Z,16.92
2017-10-25T07:51:56.577Z,16.98
2017-10-25T07:52:56.455Z,16.86
2017-10-25T07:53:56.793Z,16.96
2017-10-25T07:54:56.441Z,16.98
2017-10-25T07:55:56.757Z,16.93
2017-10-25T07:56:56.414Z,16.96
2017-10-25T07:57:56.734Z,16.92
2017-10-25T07:58:56.058Z,16.92
2017-10-25T07:59:56.369Z,16.95
2017-10-25T08:00:56.360Z,17.08
2017-10-25T08:01:56.396Z,17.06
2017-10-25T08:02:56.000Z,16.98
2017-10-25T08:03:56.661Z,17.03
2017-10-25T08:04:56.317Z,17
2017-10-25T08:05:56.297Z,17.1
2017-10-25T08:06:56.288Z,17.08
2017-10-25T08:07:55.948Z,17.11
2017-10-25T08:08:56.598Z,17.13
2017-10-25T08:09:56.251Z,17.07
2017-10-25T08:10:55.901Z,17.11
2017-10-25T08:11:56.227Z,17.15
2017-10-25T08:12:56.552Z,17.17
2017-10-25T08:13:56.537Z,17.1
2017-10-25T08:14:55.859Z,17.18
2017-10-25T08:15:56.515Z,17.32
2017-10-25T08:16:56.288Z,17.3
2017-10-25T08:17:56.158Z,17.35
2017-10-25T08:18:56.142Z,17.32
2017-10-25T08:19:56.128Z,17.38
2017-10-25T08:20:56.452Z,17.4
2017-10-25T08:21:56.108Z,17.41
2017-10-25T08:22:56.425Z,17.47
2017-10-25T08:23:56.083Z,17.46
2017-10-25T08:24:56.403Z,17.47
2017-10-25T08:25:55.729Z,17.43
2017-10-25T08:26:56.052Z,17.28
2017-10-25T08:27:56.040Z,17.29
2017-10-25T08:28:56.023Z,17.32
2017-10-25T08:29:56.344Z,17.28
2017-10-25T08:30:56.342Z,17.25
2017-10-25T08:31:55.995Z,17.35
2017-10-25T08:32:55.976Z,17.28
2017-10-25T08:33:55.968Z,17.33
2017-10-25T08:34:55.970Z,17.35
2017-10-25T08:35:56.291Z,17.44
2017-10-25T08:36:56.331Z,17.51
2017-10-25T08:37:56.037Z,17.38
2017-10-25T08:38:55.919Z,17.36
2017-10-25T08:39:56.235Z,17.35
2017-10-25T08:40:55.574Z,17.46
2017-10-25T08:41:55.538Z,17.36
2017-10-25T08:42:55.869Z,17.36
2017-10-25T08:43:55.859Z,17.38
2017-10-25T08:44:56.231Z,17.48
2017-10-25T08:45:56.155Z,17.47
2017-10-25T08:46:55.808Z,17.47
2017-10-25T08:47:55.814Z,17.51
2017-10-25T08:48:56.127Z,17.43
2017-10-25T08:49:55.781Z,17.53
2017-10-25T08:50:56.103Z,17.54
2017-10-25T08:51:56.091Z,17.53
2017-10-25T08:52:55.742Z,17.57
2017-10-25T08:53:55.727Z,17.69
2017-10-25T08:54:55.727Z,17.69
2017-10-25T08:55:55.704Z,17.67
2017-10-25T08:56:55.694Z,17.54
2017-10-25T08:57:56.026Z,17.54
2017-10-25T08:58:55.668Z,17.53
2017-10-25T08:59:55.329Z,17.57
2017-10-25T09:00:55.653Z,17.57
2017-10-25T09:01:55.638Z,17.5
2017-10-25T09:02:55.631Z,17.55
2017-10-25T09:03:55.283Z,17.67
2017-10-25T09:04:55.606Z,17.71
2017-10-25T09:05:55.262Z,17.81
2017-10-25T09:06:55.599Z,17.66
2017-10-25T09:07:55.905Z,17.64
2017-10-25T09:08:55.898Z,17.57
2017-10-25T09:09:55.548Z,17.54
2017-10-25T09:10:55.203Z,17.55
2017-10-25T09:11:55.859Z,17.51
2017-10-25T09:12:55.520Z,17.53
2017-10-25T09:13:55.507Z,17.43
2017-10-25T09:14:55.154Z,17.48
2017-10-25T09:15:55.810Z,17.55
2017-10-25T09:16:55.804Z,17.54
2017-10-25T09:17:55.555Z,17.43
2017-10-25T09:18:55.816Z,17.53
2017-10-25T09:19:55.431Z,17.47
2017-10-25T09:20:55.084Z,17.43
2017-10-25T09:21:55.074Z,17.51
2017-10-25T09:22:55.397Z,17.53
2017-10-25T09:23:55.383Z,17.46
2017-10-25T09:24:55.574Z,17.47
2017-10-25T09:25:55.700Z,17.51
2017-10-25T09:26:55.352Z,17.51
2017-10-25T09:27:55.438Z,17.4
2017-10-25T09:28:55.329Z,17.47
2017-10-25T09:29:55.317Z,17.47
2017-10-25T09:30:55.647Z,17.55
2017-10-25T09:31:55.308Z,17.55
2017-10-25T09:32:55.282Z,17.57
2017-10-25T09:33:54.941Z,17.53
2017-10-25T09:34:55.592Z,17.55
2017-10-25T09:35:54.918Z,17.54
2017-10-25T09:36:55.242Z,17.57
2017-10-25T09:37:55.663Z,17.64
2017-10-25T09:38:55.212Z,17.57
2017-10-25T09:39:54.872Z,17.54
2017-10-25T09:40:55.188Z,17.55
2017-10-25T09:41:55.183Z,17.54
2017-10-25T09:42:55.501Z,17.59
2017-10-25T09:43:55.161Z,17.43
2017-10-25T09:44:55.484Z,17.54
2017-10-25T09:45:55.143Z,17.43
2017-10-25T09:46:55.127Z,17.46
2017-10-25T09:47:55.542Z,17.5
2017-10-25T09:48:55.481Z,17.44
2017-10-25T09:49:55.086Z,17.4
2017-10-25T09:50:55.076Z,17.38
2017-10-25T09:51:55.088Z,17.33
2017-10-25T09:52:55.389Z,17.35
2017-10-25T09:53:55.387Z,17.53
2017-10-25T09:54:55.027Z,17.43
2017-10-25T09:55:55.027Z,17.47
2017-10-25T09:56:54.676Z,17.53
2017-10-25T09:57:55.582Z,17.4
2017-10-25T09:58:55.003Z,17.46
2017-10-25T09:59:54.980Z,17.48
2017-10-25T10:00:54.631Z,17.43
2017-10-25T10:01:55.285Z,17.4
2017-10-25T10:02:55.264Z,17.4
2017-10-25T10:03:54.927Z,17.32
2017-10-25T10:04:54.579Z,17.33
2017-10-25T10:05:55.234Z,17.36
2017-10-25T10:06:54.888Z,17.28
2017-10-25T10:07:54.874Z,17.32
2017-10-25T10:08:54.862Z,17.26
2017-10-25T10:09:54.856Z,17.2
2017-10-25T10:10:54.506Z,17.25
2017-10-25T10:11:55.164Z,17.18
2017-10-25T10:12:54.814Z,17.26
2017-10-25T10:13:54.831Z,17.25
2017-10-25T10:14:55.128Z,17.22
2017-10-25T10:15:54.789Z,17.18
2017-10-25T10:16:54.437Z,17.1
2017-10-25T10:17:54.757Z,17.07
2017-10-25T10:18:55.086Z,17.11
2017-10-25T10:19:54.745Z,17.11
2017-10-25T10:20:55.065Z,17.06
2017-10-25T10:21:54.714Z,17.13
2017-10-25T10:22:54.368Z,17.13
2017-10-25T10:23:54.787Z,17.08
2017-10-25T10:24:55.011Z,17.1
2017-10-25T10:25:55.027Z,17.07
2017-10-25T10:26:54.986Z,17.07
2017-10-25T10:27:54.645Z,17
2017-10-25T10:28:54.631Z,17.06
2017-10-25T10:29:54.282Z,17.04
2017-10-25T10:30:54.947Z,17.07
2017-10-25T10:31:54.588Z,17
2017-10-25T10:32:54.918Z,17.04
2017-10-25T10:33:54.573Z,17.06
2017-10-25T10:34:54.563Z,17.03
2017-10-25T10:35:54.873Z,16.96
2017-10-25T10:36:54.532Z,16.96
2017-10-25T10:37:54.203Z,16.93
2017-10-25T10:38:54.609Z,16.96
2017-10-25T10:39:54.160Z,16.92
2017-10-25T10:40:54.478Z,16.92
2017-10-25T10:41:54.472Z,16.95
2017-10-25T10:42:54.454Z,17.07
2017-10-25T10:43:54.777Z,16.96
2017-10-25T10:44:54.093Z,17.04
2017-10-25T10:45:54.424Z,16.98
2017-10-25T10:46:54.406Z,17
2017-10-25T10:47:54.731Z,17.03
2017-10-25T10:48:54.058Z,16.92
2017-10-25T10:49:54.701Z,16.99
2017-10-25T10:50:54.367Z,16.99
2017-10-25T10:51:54.681Z,16.9
2017-10-25T10:52:54.330Z,16.88
2017-10-25T10:53:54.322Z,16.93
2017-10-25T10:54:54.305Z,16.96
2017-10-25T10:55:54.634Z,16.85
2017-10-25T10:56:54.285Z,16.96
2017-10-25T10:57:54.281Z,16.89
2017-10-25T10:58:54.259Z,17
2017-10-25T10:59:54.246Z,16.93
2017-10-25T11:00:54.568Z,17.1
2017-10-25T11:01:53.887Z,16.99
2017-10-25T11:02:54.541Z,16.98
2017-10-25T11:03:54.199Z,17.04
2017-10-25T11:04:54.527Z,17.08
2017-10-25T11:05:54.514Z,17.08
2017-10-25T11:06:54.511Z,17.07
2017-10-25T11:07:54.143Z,17.13
2017-10-25T11:08:54.478Z,17.11
2017-10-25T11:09:54.556Z,17.13
2017-10-25T11:10:54.117Z,17.08
2017-10-25T11:11:54.116Z,17.13
2017-10-25T11:12:53.750Z,17.15
2017-10-25T11:13:54.074Z,17.18
2017-10-25T11:14:54.399Z,17.15
2017-10-25T11:15:54.381Z,17.22
2017-10-25T11:16:54.375Z,17.22
2017-10-25T11:17:54.034Z,17.15
2017-10-25T11:18:54.348Z,17.22
2017-10-25T11:19:54.108Z,17.2
2017-10-25T11:20:54.324Z,17.15
2017-10-25T11:21:53.982Z,17.2
2017-10-25T11:22:54.308Z,17.25
2017-10-25T11:23:53.958Z,17.23
2017-10-25T11:24:54.143Z,17.2
2017-10-25T11:25:53.596Z,17.26
2017-10-25T11:26:53.587Z,17.22
2017-10-25T11:27:54.252Z,17.17
2017-10-25T11:28:54.232Z,17.22
2017-10-25T11:29:53.980Z,17.15
2017-10-25T11:30:54.202Z,17.13
2017-10-25T11:31:53.863Z,17.11
2017-10-25T11:32:53.849Z,17.17
2017-10-25T11:33:53.838Z,17.1
2017-10-25T11:34:53.828Z,17.07
2017-10-25T11:35:53.818Z,17.13
2017-10-25T11:36:53.461Z,17.03
2017-10-25T11:37:53.459Z,17.13
2017-10-25T11:38:53.440Z,17.06
2017-10-25T11:39:54.202Z,17.15
2017-10-25T11:40:53.750Z,17.06
2017-10-25T11:41:54.078Z,17.08
2017-10-25T11:42:53.733Z,17.08
2017-10-25T11:43:54.049Z,17.06
2017-10-25T11:44:54.039Z,17.03
2017-10-25T11:45:54.037Z,17.06
2017-10-25T11:46:53.681Z,17
2017-10-25T11:47:53.683Z,17.08
2017-10-25T11:48:53.991Z,17.06
2017-10-25T11:49:53.308Z,17.03
2017-10-25T11:50:53.296Z,17.1
2017-10-25T11:51:53.621Z,17.03
2017-10-25T11:52:53.953Z,17.06
2017-10-25T11:53:53.595Z,16.98
2017-10-25T11:54:53.244Z,17.07
2017-10-25T11:55:53.917Z,16.98
2017-10-25T11:56:53.226Z,16.93
2017-10-25T11:57:53.888Z,16.95
2017-10-25T11:58:53.536Z,16.95
2017-10-25T11:59:53.193Z,16.92
2017-10-25T12:00:53.845Z,16.93
2017-10-25T12:01:53.831Z,17
2017-10-25T12:02:53.822Z,16.92
2017-10-25T12:03:53.472Z,16.92
2017-10-25T12:04:53.804Z,16.92
2017-10-25T12:05:53.786Z,16.95
2017-10-25T12:06:53.110Z,16.89
2017-10-25T12:07:53.099Z,16.81
2017-10-25T12:08:53.752Z,16.88
2017-10-25T12:09:53.070Z,16.92
2017-10-25T12:10:53.729Z,16.88
2017-10-25T12:11:53.042Z,16.93
2017-10-25T12:12:53.366Z,16.95
2017-10-25T12:13:53.353Z,16.9
2017-10-25T12:14:53.677Z,16.9
2017-10-25T12:15:53.331Z,16.99
2017-10-25T12:16:53.645Z,16.95
2017-10-25T12:17:53.309Z,17.08
2017-10-25T12:18:53.628Z,17
2017-10-25T12:19:53.284Z,16.96
2017-10-25T12:20:53.266Z,17
2017-10-25T12:21:53.257Z,17.06
2017-10-25T12:22:53.248Z,16.89
2017-10-25T12:23:53.563Z,16.95
2017-10-25T12:24:53.216Z,16.98
2017-10-25T12:25:52.873Z,16.92
2017-10-25T12:26:53.201Z,16.95
2017-10-25T12:27:53.178Z,16.88
2017-10-25T12:28:53.499Z,16.88
2017-10-25T12:29:52.830Z,16.86
2017-10-25T12:30:53.491Z,16.89
2017-10-25T12:31:53.129Z,16.83
2017-10-25T12:32:52.789Z,16.83
2017-10-25T12:33:52.771Z,16.83
2017-10-25T12:34:53.434Z,16.78
2017-10-25T12:35:53.082Z,16.81
2017-10-25T12:36:53.067Z,16.78
2017-10-25T12:37:53.397Z,16.77
2017-10-25T12:38:53.382Z,16.75
2017-10-25T12:39:53.369Z,16.8
2017-10-25T12:40:53.354Z,16.75
2017-10-25T12:41:53.010Z,16.71
2017-10-25T12:42:52.662Z,16.73
2017-10-25T12:43:52.652Z,16.8
2017-10-25T12:44:52.639Z,16.85
2017-10-25T12:45:52.956Z,16.75
2017-10-25T12:46:52.950Z,16.77
2017-10-25T12:47:52.939Z,16.8
2017-10-25T12:48:52.600Z,16.81
2017-10-25T12:49:52.911Z,16.75
2017-10-25T12:50:53.005Z,16.75
2017-10-25T12:51:52.562Z,16.74
2017-10-25T12:52:52.875Z,16.85
2017-10-25T12:53:52.876Z,16.83
2017-10-25T12:54:53.179Z,16.75
2017-10-25T12:55:52.848Z,16.77